Página principal
METAR-TAF:

METAR-TAF

Aeroportos :

Carachi, Uzbequistão

latitude: 38-48-12N, longitude: 065-46-24E, altura: 375 m

Observação actual do tempo

O boletim foi feito há 36 minutos, às 01:00 UTC
Vento 6 kt de este
Temperatura 3°C
Humidade 70%
Pressão 1026 hPa
Visibilidade 10 km ou mais
sem nuvens abaixo de 1500 metros e sem cumulonimbus

METAR: UTSK 180100Z 08006KT CAVOK 03/M02 Q1026 R16/CLRD70

Hora: 06:36 (01:36 UTC)

Previsão

O boletim foi feito há 1 hora e 43 minutos, às 23:53 UTC
Previsão válida de 18 às 01 UTC a 18 às 10 UTC
Vento 10 kt de es-nordeste
Visibilidade 10 km ou mais
sem nuvens abaixo de 1500 metros e sem cumulonimbus
Temporariamente
de 18 às 04 UTC a 18 às 10 UTC
Vento 10 kt de nor-noroeste com rajadas de 20 kt

TAF: UTSK 172353Z 1801/1810 06010KT CAVOK TEMPO 1804/1810 34010G20KT

Observações e previsões do tempo de mais de 4000 aeroportos (mensagens METAR e TAF).

As estações disponíveis são os pontos amarelos e vermelhos sobre o mapa.

Mova o rato sobre o mapa para ver o nome da estação.

Depois clique no ponto para visualizar as observações e previsões meteorológicas.

Para alterar o mapa : clique nos botões verdes com uma cruz preta para aumentar o zoom; no botão verde com uma pitada de zoom; ou nas setas verdes para mapas adjacentes.


METAR-TAF: